Time;durP1;ratioP1;P1;durP2;ratioP2;P2;SDS_P1;SDS_P2;PMS_P1;PMS_P2;Temp;Humidity;BMP_temperature;BMP_pressure;BME280_temperature;BME280_humidity;BME280_pressure;Samples;Min_cycle;Max_cycle;Signal;HPM_P1;HPM_P2
2021/11/12 00:02:19;;;;;;;32.23;17.80;;;;;;;7.81;83.80;101548.28;5026118;28;20259;-75
2021/11/12 00:13:07;;;;;;;29.33;17.40;;;;;;;7.84;83.70;101553.47;5031079;28;20218;-76
2021/11/12 00:15:36;;;;;;;32.97;18.07;;;;;;;7.82;83.90;101547.34;5027892;28;20735;-74
2021/11/12 00:18:04;;;;;;;31.37;16.97;;;;;;;7.81;83.84;101542.97;5032065;28;20707;-75
2021/11/12 00:20:31;;;;;;;28.97;17.37;;;;;;;7.80;84.13;101543.88;5033786;28;20206;-74
2021/11/12 00:22:57;;;;;;;32.80;18.10;;;;;;;7.80;84.29;101551.84;5034118;28;20205;-75
2021/11/12 00:25:24;;;;;;;29.60;17.37;;;;;;;7.80;83.94;101555.38;5037922;28;20236;-75
2021/11/12 00:27:50;;;;;;;30.73;17.27;;;;;;;7.80;84.18;101543.88;5025728;28;20203;-75
2021/11/12 00:30:27;;;;;;;28.40;17.00;;;;;;;7.79;84.12;101550.13;5026240;28;20224;-75
2021/11/12 00:33:02;;;;;;;33.03;18.77;;;;;;;7.79;84.53;101552.75;5046764;28;20305;-73
2021/11/12 00:35:36;;;;;;;28.73;17.87;;;;;;;7.80;83.98;101557.16;5020603;28;20256;-76
2021/11/12 00:38:06;;;;;;;34.93;17.77;;;;;;;7.80;84.49;101554.50;5034817;28;20700;-74
2021/11/12 00:40:41;;;;;;;31.17;17.43;;;;;;;7.81;83.99;101550.94;5042537;28;20210;-75
2021/11/12 00:43:13;;;;;;;33.40;18.10;;;;;;;7.82;84.56;101556.16;5040031;28;20205;-74
2021/11/12 00:45:48;;;;;;;33.73;19.20;;;;;;;7.83;84.34;101549.09;5026180;28;20238;-76
2021/11/12 00:48:18;;;;;;;36.27;18.77;;;;;;;7.83;84.16;101557.03;5039119;28;20197;-75
2021/11/12 00:51:01;;;;;;;30.33;17.77;;;;;;;7.83;85.27;101554.38;5032655;28;20216;-76
2021/11/12 00:56:25;;;;;;;31.27;18.30;;;;;;;7.83;84.45;101551.72;4949278;28;20198;-76
2021/11/12 00:58:53;;;;;;;30.37;17.57;;;;;;;7.83;84.87;101551.72;5023580;28;20610;-74
2021/11/12 01:01:20;;;;;;;30.70;17.70;;;;;;;7.82;84.04;101544.69;5030743;28;20214;-76
2021/11/12 01:03:48;;;;;;;35.30;18.43;;;;;;;7.81;84.52;101553.56;5034795;28;20590;-75
2021/11/12 01:06:16;;;;;;;33.87;18.13;;;;;;;7.80;84.85;101543.88;5035728;28;20209;-75
2021/11/12 01:08:43;;;;;;;30.60;17.67;;;;;;;7.79;84.64;101542.16;5040407;28;20203;-75
2021/11/12 01:11:11;;;;;;;32.33;17.97;;;;;;;7.80;84.58;101544.75;5030501;28;20672;-75
2021/11/12 01:13:38;;;;;;;32.13;18.40;;;;;;;7.79;84.64;101547.47;5021551;28;20202;-75
2021/11/12 01:16:05;;;;;;;32.53;18.43;;;;;;;7.77;84.79;101530.75;5027366;28;20217;-75
2021/11/12 01:18:36;;;;;;;33.33;18.40;;;;;;;7.76;84.51;101529.88;5036446;28;20774;-75
2021/11/12 01:21:03;;;;;;;33.93;18.37;;;;;;;7.75;84.69;101536.09;5025193;28;20305;-76
2021/11/12 01:23:31;;;;;;;32.13;17.53;;;;;;;7.75;84.66;101527.28;5029859;28;20205;-74
2021/11/12 01:25:58;;;;;;;31.97;18.30;;;;;;;7.76;84.70;101536.97;5030380;28;20615;-74
2021/11/12 01:28:25;;;;;;;32.27;18.40;;;;;;;7.77;85.27;101528.09;5037982;28;20687;-75
2021/11/12 01:30:53;;;;;;;32.43;18.33;;;;;;;7.78;85.02;101529.81;5040126;28;20212;-75
2021/11/12 01:33:19;;;;;;;33.50;18.17;;;;;;;7.79;84.82;101531.56;5034232;28;20206;-75
2021/11/12 01:35:46;;;;;;;30.97;17.83;;;;;;;7.79;84.74;101531.56;5032331;28;20229;-74
2021/11/12 01:38:14;;;;;;;32.60;18.03;;;;;;;7.79;84.95;101526.25;5020107;28;20218;-72
2021/11/12 01:40:42;;;;;;;33.37;17.40;;;;;;;7.78;85.32;101529.81;5024296;28;20210;-74
2021/11/12 01:43:12;;;;;;;30.47;17.67;;;;;;;7.77;84.95;101528.09;5034767;28;20739;-74
2021/11/12 01:45:49;;;;;;;31.03;17.17;;;;;;;7.75;85.28;101529.94;5028925;28;20280;-75
2021/11/12 01:48:26;;;;;;;34.67;19.83;;;;;;;7.73;84.52;101531.78;5027356;28;20201;-74
2021/11/12 01:51:01;;;;;;;31.03;18.27;;;;;;;7.72;85.74;101530.91;5027121;28;20210;-74
2021/11/12 01:53:33;;;;;;;33.23;18.70;;;;;;;7.72;84.71;101525.59;5029772;28;20206;-75
2021/11/12 01:56:23;;;;;;;35.23;19.23;;;;;;;7.72;84.81;101522.94;5025975;28;20288;-74
2021/11/12 01:59:07;;;;;;;41.07;18.90;;;;;;;7.73;85.01;101521.16;5029944;28;20780;-75
2021/11/12 02:01:39;;;;;;;35.70;19.10;;;;;;;7.72;85.54;101516.78;5027113;28;20205;-74
2021/11/12 02:04:09;;;;;;;33.30;17.67;;;;;;;7.73;85.38;101515.88;5021202;28;20597;-74
2021/11/12 02:06:36;;;;;;;30.00;18.10;;;;;;;7.73;84.99;101513.22;5025879;28;20686;-74
2021/11/12 02:09:09;;;;;;;33.47;18.47;;;;;;;7.74;85.10;101506.97;5041642;28;20205;-74
2021/11/12 02:11:39;;;;;;;31.47;18.33;;;;;;;7.72;85.39;101504.38;5032380;28;20658;-74
2021/11/12 02:14:07;;;;;;;32.33;18.87;;;;;;;7.72;85.03;101507.03;5021045;28;20234;-75
2021/11/12 02:16:37;;;;;;;31.37;18.77;;;;;;;7.71;85.94;101505.31;5032653;28;20210;-75
2021/11/12 02:19:05;;;;;;;29.77;17.80;;;;;;;7.70;85.18;101500.09;5034301;28;20711;-75
2021/11/12 02:21:37;;;;;;;32.73;18.67;;;;;;;7.67;85.71;101487.81;5032031;28;20677;-75
2021/11/12 02:24:06;;;;;;;36.40;19.13;;;;;;;7.66;85.89;101492.25;5032683;28;20726;-74
2021/11/12 02:26:35;;;;;;;35.97;19.23;;;;;;;7.66;85.90;101484.31;5032293;28;20206;-74
2021/11/12 02:29:03;;;;;;;30.43;17.90;;;;;;;7.66;86.08;101486.09;5033374;28;20284;-74
2021/11/12 02:31:31;;;;;;;34.83;18.10;;;;;;;7.64;86.19;101480.84;5029053;28;20213;-74
2021/11/12 02:34:04;;;;;;;32.03;18.77;;;;;;;7.64;86.25;101480.84;5037449;28;20210;-74
2021/11/12 02:36:32;;;;;;;41.17;19.67;;;;;;;7.61;86.03;101478.28;5043476;28;20625;-75
2021/11/12 02:39:00;;;;;;;34.57;19.50;;;;;;;7.59;86.50;101482.78;5037022;28;20234;-75
2021/11/12 02:41:27;;;;;;;39.90;19.80;;;;;;;7.57;86.59;101471.38;5028058;28;20381;-73
2021/11/12 02:43:54;;;;;;;36.07;19.63;;;;;;;7.57;86.29;101468.72;5029410;28;20209;-74
2021/11/12 02:46:25;;;;;;;37.87;19.73;;;;;;;7.56;85.96;101468.78;5031821;28;20212;-74
2021/11/12 02:48:53;;;;;;;36.17;19.97;;;;;;;7.56;86.66;101471.44;5031287;28;20651;-74
2021/11/12 02:51:26;;;;;;;39.67;19.53;;;;;;;7.55;86.17;101478.53;5030548;28;20226;-74
2021/11/12 02:53:55;;;;;;;35.80;18.83;;;;;;;7.55;87.10;101472.34;5032121;28;20256;-74
2021/11/12 02:56:27;;;;;;;35.33;18.77;;;;;;;7.53;87.15;101469.75;5034667;28;20210;-74
2021/11/12 02:58:55;;;;;;;36.43;20.23;;;;;;;7.49;86.62;101468.16;5037651;28;20719;-75
2021/11/12 03:01:24;;;;;;;35.47;19.17;;;;;;;7.46;86.88;101472.72;5031894;28;20222;-75
2021/11/12 03:03:52;;;;;;;33.53;19.13;;;;;;;7.44;86.84;101474.56;5030213;28;20242;-75
2021/11/12 03:06:18;;;;;;;36.13;20.23;;;;;;;7.44;86.54;101469.25;5024123;28;20651;-74
2021/11/12 03:08:45;;;;;;;40.27;21.00;;;;;;;7.41;86.53;101467.56;5034155;28;20225;-73
2021/11/12 03:11:13;;;;;;;38.37;19.97;;;;;;;7.41;87.39;101477.31;5025225;28;20221;-74
2021/11/12 03:13:40;;;;;;;35.93;19.90;;;;;;;7.40;87.13;101473.78;5036765;28;20220;-74
2021/11/12 03:16:08;;;;;;;33.80;19.00;;;;;;;7.39;87.37;101472.06;5023388;28;20207;-74
2021/11/12 03:18:35;;;;;;;37.40;19.70;;;;;;;7.38;87.07;101472.13;5029788;28;20692;-74
2021/11/12 03:21:02;;;;;;;35.47;19.97;;;;;;;7.36;87.17;101469.53;5038791;28;20214;-75
2021/11/12 03:23:33;;;;;;;38.07;19.93;;;;;;;7.34;87.20;101466.09;5025442;28;20206;-75
2021/11/12 03:26:08;;;;;;;36.57;18.13;;;;;;;7.32;87.71;101460.84;5023675;28;20742;-74
2021/11/12 03:28:55;;;;;;;36.93;18.33;;;;;;;7.30;87.04;101448.56;5036669;28;20202;-74
2021/11/12 04:04:26;;;;;;;36.03;18.73;;;;;;;7.07;87.78;101430.88;5023526;28;20225;-75
2021/11/12 04:06:59;;;;;;;34.77;18.20;;;;;;;7.07;87.70;101435.28;5022477;28;20304;-75
2021/11/12 04:17:56;;;;;;;32.33;17.60;;;;;;;7.04;88.03;101430.09;5026960;28;20275;-77
2021/11/12 04:40:15;;;;;;;33.73;17.23;;;;;;;7.04;88.37;101415.06;5031151;28;20245;-76
2021/11/12 05:13:27;;;;;;;29.23;15.50;;;;;;;6.69;87.40;101408.41;4992756;28;20217;-75
2021/11/12 05:43:34;;;;;;;30.10;16.57;;;;;;;6.60;87.32;101395.50;5029846;28;20761;-75
2021/11/12 05:52:13;;;;;;;25.43;14.53;;;;;;;6.34;87.35;101383.16;4962946;28;20200;-74
2021/11/12 05:57:26;;;;;;;28.57;14.50;;;;;;;6.34;87.46;101374.34;5000102;28;20213;-74
2021/11/12 05:59:52;;;;;;;26.20;14.00;;;;;;;6.33;87.63;101377.91;5030285;28;20218;-75
2021/11/12 06:02:19;;;;;;;29.20;15.93;;;;;;;6.33;87.76;101370.84;5036090;28;20217;-75
2021/11/12 06:04:46;;;;;;;33.57;17.67;;;;;;;6.31;87.61;101359.44;5038254;28;20221;-74
2021/11/12 06:07:13;;;;;;;29.40;16.13;;;;;;;6.28;87.38;101368.34;5033491;28;20210;-75
2021/11/12 06:09:39;;;;;;;24.93;14.77;;;;;;;6.26;87.75;101362.28;5028648;28;20702;-75
2021/11/12 06:12:11;;;;;;;27.07;15.20;;;;;;;6.25;87.78;101364.97;5031323;28;20293;-74
2021/11/12 06:14:39;;;;;;;29.73;15.70;;;;;;;6.21;87.92;101353.63;5031028;28;20734;-74
2021/11/12 06:17:06;;;;;;;28.67;16.37;;;;;;;6.22;87.67;101359.78;5031265;28;20211;-74
2021/11/12 06:19:32;;;;;;;30.87;16.13;;;;;;;6.20;87.91;101357.19;5031487;28;20847;-74
2021/11/12 06:21:59;;;;;;;31.47;16.40;;;;;;;6.22;88.08;101357.13;5034815;28;20207;-75
2021/11/12 06:24:26;;;;;;;30.43;16.30;;;;;;;6.21;88.21;101348.34;5029769;28;20222;-75
2021/11/12 06:26:54;;;;;;;30.17;16.97;;;;;;;6.23;88.55;101357.09;5027884;28;20207;-75
2021/11/12 06:29:20;;;;;;;30.97;15.70;;;;;;;6.24;88.51;101345.59;5032852;28;20642;-76
2021/11/12 06:31:49;;;;;;;27.27;14.40;;;;;;;6.25;88.20;101349.09;5032559;28;20252;-74
2021/11/12 06:34:16;;;;;;;27.07;14.83;;;;;;;6.23;88.67;101349.16;5045721;28;20226;-73
2021/11/12 06:36:43;;;;;;;27.60;15.37;;;;;;;6.21;88.79;101342.19;5034466;28;20279;-74
2021/11/12 06:39:10;;;;;;;30.13;16.07;;;;;;;6.21;89.01;101336.88;5040092;28;20226;-75
2021/11/12 06:41:54;;;;;;;30.40;15.63;;;;;;;6.22;88.75;101328.03;5034999;28;20259;-74
2021/11/12 06:44:44;;;;;;;31.93;16.50;;;;;;;6.24;88.99;101339.44;5035705;28;20229;-74
2021/11/12 06:49:59;;;;;;;30.50;15.90;;;;;;;6.23;88.99;101333.28;5032491;28;20293;-74
2021/11/12 06:52:28;;;;;;;28.93;15.70;;;;;;;6.26;89.30;101338.47;5032551;28;20212;-74
2021/11/12 06:54:56;;;;;;;32.37;15.60;;;;;;;6.27;89.52;101342.81;5044404;28;20264;-75
2021/11/12 06:57:23;;;;;;;30.33;15.70;;;;;;;6.27;89.53;101334.00;5033576;28;20284;-74
2021/11/12 06:59:50;;;;;;;27.87;15.77;;;;;;;6.30;89.67;101330.41;5033812;28;20238;-74
2021/11/12 07:02:20;;;;;;;27.73;16.00;;;;;;;6.31;89.50;101326.84;5032602;28;20214;-74
2021/11/12 07:04:47;;;;;;;26.63;14.83;;;;;;;6.32;89.63;101320.63;5044822;28;20772;-73
2021/11/12 07:07:15;;;;;;;32.57;16.70;;;;;;;6.32;89.87;101328.56;5046485;28;20209;-75
2021/11/12 07:09:42;;;;;;;30.47;15.63;;;;;;;6.34;89.89;101326.75;5040114;28;20216;-74
2021/11/12 07:12:11;;;;;;;28.23;15.23;;;;;;;6.36;89.88;101323.13;5040216;28;20217;-72
2021/11/12 07:14:37;;;;;;;25.80;14.23;;;;;;;6.38;89.65;101315.13;5037856;28;20229;-74
2021/11/12 07:17:05;;;;;;;25.57;14.87;;;;;;;6.36;89.66;101304.59;5051977;28;20663;-74
2021/11/12 07:19:33;;;;;;;30.57;16.53;;;;;;;6.35;89.33;101302.00;5036278;28;20750;-73
2021/11/12 07:22:00;;;;;;;26.57;14.40;;;;;;;6.34;89.70;101300.28;5043009;28;20209;-74
2021/11/12 07:24:27;;;;;;;25.33;13.53;;;;;;;6.32;89.26;101307.41;5048664;28;20238;-75
2021/11/12 07:26:54;;;;;;;24.63;13.63;;;;;;;6.31;89.85;101308.31;5039223;28;20212;-74
2021/11/12 07:29:23;;;;;;;25.83;14.23;;;;;;;6.28;89.42;101301.34;5050068;28;20237;-72
2021/11/12 07:31:50;;;;;;;22.57;12.93;;;;;;;6.28;89.82;101299.56;5050027;28;20224;-74
2021/11/12 07:34:17;;;;;;;28.17;13.87;;;;;;;6.26;89.63;101298.78;5041683;28;20292;-74
2021/11/12 07:36:47;;;;;;;26.23;13.70;;;;;;;6.27;89.70;101289.03;5038668;28;20213;-75
2021/11/12 07:39:19;;;;;;;22.47;12.53;;;;;;;6.28;89.68;101294.28;5050315;28;20237;-74
2021/11/12 07:45:00;;;;;;;23.57;13.43;;;;;;;6.34;89.80;101274.69;5011656;28;20250;-74
2021/11/12 07:47:27;;;;;;;25.17;14.37;;;;;;;6.36;89.89;101277.28;5039055;28;20217;-73
2021/11/12 07:49:56;;;;;;;32.83;14.73;;;;;;;6.38;89.87;101286.03;5037290;28;20213;-74
2021/11/12 07:52:27;;;;;;;26.10;14.63;;;;;;;6.42;90.39;101283.22;5038882;28;20241;-73
2021/11/12 07:54:55;;;;;;;17.57;10.67;;;;;;;6.45;90.14;101276.97;5052015;28;20234;-74
2021/11/12 07:57:22;;;;;;;15.40;10.13;;;;;;;6.50;90.52;101278.50;5031211;28;20297;-73
2021/11/12 07:59:49;;;;;;;14.40;9.10;;;;;;;6.57;91.13;101279.16;5042475;28;20225;-74
2021/11/12 08:02:17;;;;;;;13.83;9.13;;;;;;;6.62;90.77;101274.56;5035573;28;20363;-74
2021/11/12 08:04:44;;;;;;;12.07;7.93;;;;;;;6.67;91.31;101262.00;5040141;28;20238;-74
2021/11/12 08:07:12;;;;;;;12.20;7.53;;;;;;;6.73;91.01;101252.97;5032141;28;20578;-74
2021/11/12 08:09:48;;;;;;;10.97;6.87;;;;;;;6.76;91.07;101261.69;5019929;28;20218;-74
2021/11/12 08:12:18;;;;;;;9.23;5.87;;;;;;;6.82;91.28;101252.63;5044561;28;20321;-74
2021/11/12 08:14:55;;;;;;;6.90;4.93;;;;;;;6.87;91.57;101250.66;5025571;28;20273;-74
2021/11/12 08:17:29;;;;;;;5.70;4.03;;;;;;;6.95;91.54;101243.31;5036471;28;20209;-74
2021/11/12 08:20:00;;;;;;;6.37;4.30;;;;;;;6.99;92.26;101231.63;5027313;28;20245;-74
2021/11/12 08:22:30;;;;;;;5.57;3.90;;;;;;;7.06;91.78;101232.28;5036178;28;20214;-74
2021/11/12 08:25:09;;;;;;;4.80;3.60;;;;;;;7.12;91.69;101229.38;5032147;28;20237;-74
2021/11/12 08:30:24;;;;;;;4.33;2.80;;;;;;;7.22;91.81;101223.66;5017409;28;20209;-74
2021/11/12 08:33:17;;;;;;;2.50;1.93;;;;;;;7.28;92.07;101217.25;5035882;28;20216;-72
2021/11/12 08:36:00;;;;;;;3.60;2.30;;;;;;;7.32;91.27;101222.38;5038260;28;20225;-75
2021/11/12 08:38:33;;;;;;;2.20;1.60;;;;;;;7.38;91.95;101218.59;5045449;28;20676;-75
2021/11/12 08:41:07;;;;;;;4.30;2.20;;;;;;;7.42;92.05;101214.03;5039672;28;20242;-74
2021/11/12 08:43:36;;;;;;;3.57;2.47;;;;;;;7.46;90.93;101205.03;5045646;28;20218;-74
2021/11/12 08:46:13;;;;;;;3.00;2.50;;;;;;;7.48;91.30;101205.84;5020795;28;20269;-76
2021/11/12 08:48:51;;;;;;;3.73;2.50;;;;;;;7.48;91.10;101209.34;5040907;28;20206;-74
2021/11/12 08:51:19;;;;;;;3.90;2.30;;;;;;;7.49;90.50;101196.97;5042882;28;20213;-74
2021/11/12 08:53:47;;;;;;;2.83;2.53;;;;;;;7.51;90.26;101195.13;5035897;28;20599;-74
2021/11/12 08:56:16;;;;;;;2.70;2.00;;;;;;;7.53;90.58;101191.44;5033169;28;20207;-74
2021/11/12 08:58:44;;;;;;;2.23;1.90;;;;;;;7.55;90.19;101191.38;5030470;28;20213;-74
2021/11/12 09:01:12;;;;;;;3.67;2.10;;;;;;;7.56;90.36;101188.66;5038249;28;20577;-74
2021/11/12 09:03:40;;;;;;;4.53;2.20;;;;;;;7.59;90.34;101195.63;5049978;28;20240;-75
2021/11/12 09:06:07;;;;;;;2.87;2.10;;;;;;;7.59;89.31;101187.69;5021203;28;20214;-73
2021/11/12 09:08:34;;;;;;;3.00;1.70;;;;;;;7.60;89.84;101182.31;5044326;28;20221;-74
2021/11/12 09:11:01;;;;;;;3.17;2.00;;;;;;;7.62;89.35;101182.25;5046766;28;20217;-74
2021/11/12 09:13:32;;;;;;;3.63;2.83;;;;;;;7.60;89.01;101182.31;5042699;28;20409;-74
2021/11/12 09:16:03;;;;;;;3.97;1.97;;;;;;;7.58;88.49;101184.16;5042596;28;20229;-74
2021/11/12 09:18:30;;;;;;;3.40;1.80;;;;;;;7.58;88.78;101184.16;5034992;28;20287;-73
2021/11/12 09:20:56;;;;;;;2.50;1.90;;;;;;;7.57;88.62;101184.22;5045900;28;20233;-72
2021/11/12 09:23:23;;;;;;;3.50;1.83;;;;;;;7.57;88.56;101182.44;5033788;28;20698;-75
2021/11/12 09:25:50;;;;;;;2.70;2.10;;;;;;;7.58;88.82;101183.31;5040497;28;20320;-74
2021/11/12 09:28:17;;;;;;;2.53;2.00;;;;;;;7.57;88.67;101169.19;5046881;28;20209;-73
2021/11/12 09:30:45;;;;;;;3.60;3.30;;;;;;;7.58;87.64;101162.09;5040070;28;20214;-74
2021/11/12 09:33:12;;;;;;;4.00;3.60;;;;;;;7.59;87.54;101156.72;5038825;28;20210;-74
2021/11/12 09:35:39;;;;;;;3.60;3.10;;;;;;;7.60;88.16;101149.66;5043340;28;20230;-73
2021/11/12 09:38:06;;;;;;;3.93;3.53;;;;;;;7.57;87.42;101153.28;5047652;28;20217;-74
2021/11/12 09:40:33;;;;;;;6.07;3.40;;;;;;;7.57;87.72;101163.03;5040329;28;20237;-73
2021/11/12 09:43:00;;;;;;;3.90;3.20;;;;;;;7.55;86.99;101160.44;5049189;28;20209;-73
2021/11/12 09:45:27;;;;;;;3.07;2.77;;;;;;;7.56;86.90;101159.50;5042023;22;20239;-72
2021/11/12 09:47:57;;;;;;;4.83;2.97;;;;;;;7.58;86.83;101162.97;4989394;28;20215;-72
2021/11/12 09:50:26;;;;;;;3.93;3.10;;;;;;;7.56;86.46;101148.91;4995567;28;20198;-72
2021/11/12 09:52:53;;;;;;;4.90;3.57;;;;;;;7.57;86.35;101150.63;5000603;28;20208;-72
2021/11/12 09:55:20;;;;;;;5.37;3.60;;;;;;;7.59;85.69;101137.31;4991877;28;20597;-71
2021/11/12 09:57:49;;;;;;;4.93;3.43;;;;;;;7.60;85.75;101131.94;5008108;28;20234;-73
2021/11/12 10:00:20;;;;;;;4.80;3.60;;;;;;;7.63;85.27;101137.13;5010064;28;20239;-73
2021/11/12 10:02:49;;;;;;;4.33;3.20;;;;;;;7.66;85.60;101134.34;5004215;28;20266;-73
2021/11/12 10:05:30;;;;;;;4.30;3.23;;;;;;;7.71;85.36;101144.72;5001918;28;20238;-72
2021/11/12 10:07:57;;;;;;;4.63;3.67;;;;;;;7.75;84.86;101145.47;4995349;28;20242;-73
2021/11/12 10:10:24;;;;;;;3.93;3.33;;;;;;;7.76;84.83;101137.44;4998070;28;20211;-73
2021/11/12 10:12:54;;;;;;;5.80;3.80;;;;;;;7.77;83.87;101133.00;5001082;28;20222;-73
2021/11/12 10:15:24;;;;;;;5.67;3.43;;;;;;;7.79;84.29;101136.44;4998946;28;20261;-73
2021/11/12 10:17:51;;;;;;;4.17;3.27;;;;;;;7.82;84.13;101137.19;5004806;28;20223;-72
2021/11/12 10:20:21;;;;;;;4.47;3.47;;;;;;;7.87;83.64;101137.00;5005863;28;20330;-73
2021/11/12 10:22:49;;;;;;;7.47;4.03;;;;;;;7.92;83.40;101145.56;5007583;28;20221;-73
2021/11/12 10:25:17;;;;;;;3.67;3.20;;;;;;;7.96;83.38;101136.56;4989585;28;20242;-73
2021/11/12 10:27:50;;;;;;;4.27;3.80;;;;;;;8.00;83.60;101138.16;5003411;28;20210;-73
2021/11/12 10:30:21;;;;;;;4.70;3.80;;;;;;;8.02;82.93;101138.94;5009903;28;20212;-74
2021/11/12 10:32:48;;;;;;;6.90;4.10;;;;;;;8.02;82.27;101141.59;5005040;28;20247;-74
2021/11/12 10:35:25;;;;;;;9.50;6.17;;;;;;;8.03;82.23;101135.38;4995108;28;20237;-74
2021/11/12 10:37:53;;;;;;;6.57;4.20;;;;;;;8.08;82.82;101136.00;4993676;28;20219;-74
2021/11/12 10:40:22;;;;;;;6.43;4.70;;;;;;;8.15;82.13;101132.16;5008602;28;20230;-74
2021/11/12 10:42:51;;;;;;;5.90;5.17;;;;;;;8.24;81.26;101126.41;5000409;28;20317;-74
2021/11/12 10:45:20;;;;;;;5.33;4.33;;;;;;;8.30;81.41;101119.97;5013164;28;20244;-72
2021/11/12 10:47:48;;;;;;;7.80;4.40;;;;;;;8.33;80.59;101109.25;5012411;28;20218;-73
2021/11/12 10:50:16;;;;;;;6.10;4.90;;;;;;;8.32;80.48;101107.53;5013188;28;20203;-74
2021/11/12 10:52:45;;;;;;;6.57;5.77;;;;;;;8.33;80.81;101099.50;5005243;28;20215;-74
2021/11/12 10:55:14;;;;;;;8.30;6.03;;;;;;;8.34;79.81;101095.91;4996719;28;20239;-73
2021/11/12 10:57:47;;;;;;;7.73;6.33;;;;;;;8.36;79.92;101101.16;5004530;28;20215;-74
2021/11/12 11:00:21;;;;;;;6.80;6.00;;;;;;;8.37;79.23;101099.34;5006518;28;20227;-73
2021/11/12 11:02:50;;;;;;;9.13;6.80;;;;;;;8.34;78.95;101101.22;4995171;28;20215;-74
2021/11/12 11:05:20;;;;;;;11.20;6.87;;;;;;;8.33;79.05;101104.78;5006357;28;20745;-73
2021/11/12 11:07:52;;;;;;;9.13;6.60;;;;;;;8.33;78.40;101107.44;5008799;28;20246;-74
2021/11/12 11:10:23;;;;;;;9.27;7.83;;;;;;;8.32;78.72;101102.22;5000320;28;20215;-74
2021/11/12 11:12:50;;;;;;;7.20;6.17;;;;;;;8.29;78.18;101108.47;5011443;28;20211;-74
2021/11/12 11:15:30;;;;;;;9.03;7.23;;;;;;;8.29;78.13;101110.28;5009631;28;20272;-74
2021/11/12 11:18:18;;;;;;;9.37;7.80;;;;;;;8.30;78.50;101093.44;5009088;28;20206;-73
2021/11/12 11:20:45;;;;;;;12.07;9.07;;;;;;;8.30;77.77;101085.47;4997842;28;20242;-73
2021/11/12 11:23:13;;;;;;;10.70;8.37;;;;;;;8.30;78.10;101086.31;5001016;28;20207;-73
2021/11/12 11:25:49;;;;;;;9.93;8.23;;;;;;;8.34;78.19;101079.97;4993176;28;20254;-74
2021/11/12 11:28:16;;;;;;;11.60;9.03;;;;;;;8.34;77.72;101068.50;5003741;28;20211;-72
2021/11/12 11:30:45;;;;;;;13.37;9.70;;;;;;;8.37;77.32;101064.84;4998942;28;20677;-72
2021/11/12 11:33:12;;;;;;;12.60;10.60;;;;;;;8.37;77.57;101060.41;4999780;28;20219;-72
2021/11/12 11:35:40;;;;;;;11.37;9.53;;;;;;;8.41;77.08;101053.16;5007235;28;20231;-72
2021/11/12 11:38:07;;;;;;;11.53;9.60;;;;;;;8.45;77.06;101038.78;5007416;28;20207;-73
2021/11/12 11:40:39;;;;;;;15.10;10.50;;;;;;;8.46;77.12;101035.19;5007520;28;20238;-73
2021/11/12 11:43:08;;;;;;;13.40;9.47;;;;;;;8.49;77.52;101030.59;5001357;28;20548;-73
2021/11/12 11:45:35;;;;;;;15.37;10.60;;;;;;;8.53;77.33;101026.00;4998554;28;20243;-73
2021/11/12 11:48:02;;;;;;;13.13;9.97;;;;;;;8.56;76.97;101023.22;5011424;28;20698;-70
2021/11/12 11:50:31;;;;;;;15.00;10.40;;;;;;;8.57;76.69;101027.59;4997660;28;20230;-72
2021/11/12 11:53:26;;;;;;;15.73;11.70;;;;;;;8.56;76.53;101032.03;5003554;28;20218;-73
2021/11/12 11:56:12;;;;;;;16.73;11.43;;;;;;;8.60;76.54;101024.75;4994659;28;20321;-73
2021/11/12 11:58:41;;;;;;;14.77;11.80;;;;;;;8.60;76.54;101027.41;4993956;28;20211;-73
2021/11/12 12:01:34;;;;;;;17.67;11.87;;;;;;;8.62;76.32;101026.41;5008478;28;20341;-73
2021/11/12 12:04:35;;;;;;;17.40;12.73;;;;;;;8.65;76.45;101023.59;5016047;28;20328;-72
2021/11/12 12:07:42;;;;;;;21.53;14.47;;;;;;;8.68;75.85;101023.47;5014433;28;20225;-73
2021/11/12 12:10:20;;;;;;;25.33;15.47;;;;;;;8.69;76.45;101021.66;4934160;29;20644;-73
2021/11/12 12:13:02;;;;;;;21.13;14.33;;;;;;;8.71;76.31;101022.44;4927244;29;20206;-73
2021/11/12 12:15:31;;;;;;;25.07;15.73;;;;;;;8.72;76.13;101016.22;4989656;28;20237;-72
2021/11/12 12:18:13;;;;;;;22.17;13.63;;;;;;;8.75;75.07;101012.53;5008071;28;20212;-72
2021/11/12 12:20:55;;;;;;;24.60;15.70;;;;;;;8.74;75.84;101001.06;5020538;28;20226;-71
2021/11/12 13:19:50;;;;;;;19.73;15.07;;;;;;;8.65;74.88;100924.50;4992088;28;20217;-72
2021/11/12 13:22:32;;;;;;;19.47;13.40;;;;;;;8.62;74.27;100916.69;4992532;28;20243;-73
2021/11/12 13:24:58;;;;;;;22.07;15.00;;;;;;;8.58;74.43;100913.38;4992508;28;20321;-72
2021/11/12 13:27:29;;;;;;;19.23;13.93;;;;;;;8.56;74.69;100909.91;4992069;28;20684;-73
2021/11/12 13:29:55;;;;;;;22.70;14.30;;;;;;;8.54;74.32;100908.28;4990139;28;20212;-75
2021/11/12 13:32:22;;;;;;;23.57;13.57;;;;;;;8.51;74.61;100911.94;4991068;28;20211;-73
2021/11/12 13:34:50;;;;;;;21.97;14.03;;;;;;;8.49;74.18;100899.69;5001673;28;20242;-73
2021/11/12 13:37:19;;;;;;;22.27;14.93;;;;;;;8.49;74.00;100902.34;5005871;28;20203;-73
2021/11/12 13:40:01;;;;;;;22.73;13.63;;;;;;;8.48;74.56;100913.88;5002687;28;20212;-73
2021/11/12 13:42:29;;;;;;;20.57;13.77;;;;;;;8.47;73.97;100896.25;5005980;28;20202;-74
2021/11/12 13:44:56;;;;;;;21.77;14.67;;;;;;;8.46;74.17;100899.84;5010004;28;20238;-73
2021/11/12 13:47:23;;;;;;;22.50;14.87;;;;;;;8.47;74.19;100914.81;5013310;28;20490;-73
2021/11/12 13:49:53;;;;;;;21.93;14.50;;;;;;;8.45;74.36;100908.72;5010456;28;20202;-74
2021/11/12 13:52:22;;;;;;;23.77;14.17;;;;;;;8.46;73.97;100889.22;5006763;28;20214;-73
2021/11/12 13:54:51;;;;;;;21.00;13.80;;;;;;;8.44;74.60;100883.97;5007825;28;20222;-74
2021/11/12 13:57:19;;;;;;;18.27;13.47;;;;;;;8.43;73.79;100884.91;5006376;28;20665;-73
2021/11/12 13:59:50;;;;;;;23.90;14.03;;;;;;;8.42;74.07;100869.94;5010535;28;20206;-74
2021/11/12 14:02:17;;;;;;;22.27;14.97;;;;;;;8.42;73.92;100875.22;5015910;28;20218;-72
2021/11/12 14:04:43;;;;;;;22.93;14.37;;;;;;;8.40;74.14;100871.81;5016404;28;20229;-72
2021/11/12 14:07:17;;;;;;;21.10;14.03;;;;;;;8.41;74.67;100867.38;5011102;28;20210;-73
2021/11/12 14:09:44;;;;;;;18.53;13.20;;;;;;;8.39;74.05;100866.59;5010410;28;20209;-73
2021/11/12 14:12:13;;;;;;;21.00;14.80;;;;;;;8.39;74.20;100864.81;5006785;28;20203;-74
2021/11/12 14:14:42;;;;;;;22.20;15.07;;;;;;;8.39;73.98;100866.59;5005430;28;20235;-74
2021/11/12 14:17:20;;;;;;;21.40;14.70;;;;;;;8.36;74.14;100854.34;5004405;28;20237;-73
2021/11/12 14:20:14;;;;;;;20.00;14.17;;;;;;;8.35;74.27;100850.81;5014888;28;20221;-73
2021/11/12 14:22:50;;;;;;;21.10;14.47;;;;;;;8.32;74.86;100844.81;5013556;28;20298;-71
2021/11/12 14:25:33;;;;;;;20.90;13.70;;;;;;;8.30;74.44;100843.97;5004023;28;20292;-73
2021/11/12 14:28:16;;;;;;;18.87;13.97;;;;;;;8.27;73.99;100838.81;5007510;28;20222;-73
2021/11/12 14:33:42;;;;;;;22.27;14.47;;;;;;;8.20;74.21;100830.34;5002424;28;20665;-73
2021/11/12 14:36:42;;;;;;;22.03;15.47;;;;;;;8.14;74.38;100822.69;5012463;28;20292;-73
2021/11/12 14:39:23;;;;;;;22.63;15.63;;;;;;;8.09;74.52;100819.41;5007806;28;20203;-74
2021/11/12 14:45:02;;;;;;;21.90;15.17;;;;;;;7.97;73.69;100810.28;5005656;28;20610;-73
2021/11/12 14:47:37;;;;;;;25.90;15.13;;;;;;;7.92;73.98;100809.63;5004812;28;20561;-74
2021/11/12 14:50:24;;;;;;;24.77;15.03;;;;;;;7.89;73.83;100811.56;5012549;28;20206;-73
2021/11/12 14:53:25;;;;;;;18.77;13.63;;;;;;;7.85;74.37;100812.69;5012674;28;20203;-74
2021/11/12 14:56:01;;;;;;;20.87;14.37;;;;;;;7.80;74.36;100812.91;4993347;28;20317;-74
2021/11/12 14:58:28;;;;;;;22.67;14.77;;;;;;;7.77;74.48;100799.78;5017494;28;20687;-73
2021/11/12 15:01:02;;;;;;;21.13;13.77;;;;;;;7.74;74.20;100804.38;5016811;28;20222;-74
2021/11/12 15:03:29;;;;;;;24.30;14.60;;;;;;;7.71;73.70;100801.88;5005568;28;20221;-73
2021/11/12 15:05:55;;;;;;;21.90;14.83;;;;;;;7.68;74.67;100804.69;5007553;28;20224;-74
2021/11/12 15:08:23;;;;;;;21.30;14.77;;;;;;;7.65;74.82;100809.22;5010710;28;20210;-74
2021/11/12 15:10:52;;;;;;;21.43;14.70;;;;;;;7.62;73.97;100811.16;5008946;28;20665;-74